sensor_id;sensor_type;location;lat;lon;timestamp;noise_LAeq;noise_LA_min;noise_LA_max;noise_LA01;noise_LA95
49215;Laerm;45943;53.148;8.204;2022-12-08T00:01:52;41.60;38.48;47.90;;
49215;Laerm;45943;53.148;8.204;2022-12-08T00:04:18;42.09;38.30;48.94;;
49215;Laerm;45943;53.148;8.204;2022-12-08T00:06:44;42.65;38.97;55.83;;
49215;Laerm;45943;53.148;8.204;2022-12-08T00:09:37;45.62;39.27;69.01;;
49215;Laerm;45943;53.148;8.204;2022-12-08T00:12:12;52.64;38.12;74.05;;
49215;Laerm;45943;53.148;8.204;2022-12-08T00:14:42;66.61;38.48;84.70;;
49215;Laerm;45943;53.148;8.204;2022-12-08T00:17:10;47.20;37.72;71.50;;
49215;Laerm;45943;53.148;8.204;2022-12-08T00:19:37;46.62;37.72;68.03;;
49215;Laerm;45943;53.148;8.204;2022-12-08T00:22:07;42.21;38.97;45.74;;
49215;Laerm;45943;53.148;8.204;2022-12-08T00:24:36;43.08;39.12;53.38;;
49215;Laerm;45943;53.148;8.204;2022-12-08T00:27:06;42.93;39.12;46.75;;
49215;Laerm;45943;53.148;8.204;2022-12-08T00:29:32;42.86;39.68;46.83;;
49215;Laerm;45943;53.148;8.204;2022-12-08T00:31:58;41.59;38.12;46.23;;
49215;Laerm;45943;53.148;8.204;2022-12-08T00:34:24;43.70;39.68;54.95;;
49215;Laerm;45943;53.148;8.204;2022-12-08T00:36:51;44.20;39.27;58.27;;
49215;Laerm;45943;53.148;8.204;2022-12-08T00:39:17;53.11;38.48;80.34;;
49215;Laerm;45943;53.148;8.204;2022-12-08T00:41:43;42.55;39.68;46.14;;
49215;Laerm;45943;53.148;8.204;2022-12-08T00:44:27;42.57;39.94;47.88;;
49215;Laerm;45943;53.148;8.204;2022-12-08T00:46:54;65.36;42.49;81.58;;
49215;Laerm;45943;53.148;8.204;2022-12-08T00:49:20;45.41;40.73;56.51;;
49215;Laerm;45943;53.148;8.204;2022-12-08T00:51:46;45.16;40.63;55.91;;
49215;Laerm;45943;53.148;8.204;2022-12-08T00:54:12;42.60;38.81;61.18;;
49215;Laerm;45943;53.148;8.204;2022-12-08T00:56:38;42.29;38.81;61.39;;
49215;Laerm;45943;53.148;8.204;2022-12-08T00:59:06;42.97;39.27;58.45;;
49215;Laerm;45943;53.148;8.204;2022-12-08T01:01:33;41.81;38.65;52.88;;
49215;Laerm;45943;53.148;8.204;2022-12-08T01:04:08;52.19;39.68;73.29;;
49215;Laerm;45943;53.148;8.204;2022-12-08T01:06:35;44.25;40.63;52.29;;
49215;Laerm;45943;53.148;8.204;2022-12-08T01:09:03;43.18;38.97;57.42;;
49215;Laerm;45943;53.148;8.204;2022-12-08T01:11:30;42.73;39.94;46.54;;
49215;Laerm;45943;53.148;8.204;2022-12-08T01:13:56;42.48;39.07;46.83;;
49215;Laerm;45943;53.148;8.204;2022-12-08T01:16:25;41.79;37.72;52.77;;
49215;Laerm;45943;53.148;8.204;2022-12-08T01:18:52;41.76;38.81;48.53;;
49215;Laerm;45943;53.148;8.204;2022-12-08T01:21:18;41.32;38.12;44.37;;
49215;Laerm;45943;53.148;8.204;2022-12-08T01:23:44;43.18;39.55;46.90;;
49215;Laerm;45943;53.148;8.204;2022-12-08T01:26:11;41.99;39.27;46.43;;
49215;Laerm;45943;53.148;8.204;2022-12-08T01:28:38;41.29;37.95;53.26;;
49215;Laerm;45943;53.148;8.204;2022-12-08T01:31:16;42.25;38.97;58.09;;
49215;Laerm;45943;53.148;8.204;2022-12-08T01:33:42;43.06;38.65;54.28;;
49215;Laerm;45943;53.148;8.204;2022-12-08T01:36:21;44.08;38.97;67.69;;
49215;Laerm;45943;53.148;8.204;2022-12-08T01:38:48;42.55;38.65;54.26;;
49215;Laerm;45943;53.148;8.204;2022-12-08T01:41:16;41.87;38.12;62.84;;
49215;Laerm;45943;53.148;8.204;2022-12-08T01:43:55;42.91;39.41;58.84;;
49215;Laerm;45943;53.148;8.204;2022-12-08T01:46:22;43.17;40.30;57.70;;
49215;Laerm;45943;53.148;8.204;2022-12-08T01:48:50;42.28;39.12;55.13;;
49215;Laerm;45943;53.148;8.204;2022-12-08T01:51:16;42.87;39.41;59.57;;
49215;Laerm;45943;53.148;8.204;2022-12-08T01:53:43;42.13;38.81;49.62;;
49215;Laerm;45943;53.148;8.204;2022-12-08T01:56:17;42.74;38.97;59.93;;
49215;Laerm;45943;53.148;8.204;2022-12-08T01:58:51;46.36;39.12;55.87;;
49215;Laerm;45943;53.148;8.204;2022-12-08T02:01:18;42.42;38.12;67.61;;
49215;Laerm;45943;53.148;8.204;2022-12-08T02:03:57;53.19;40.52;72.69;;
49215;Laerm;45943;53.148;8.204;2022-12-08T02:06:25;42.91;39.68;55.31;;
49215;Laerm;45943;53.148;8.204;2022-12-08T02:08:52;41.53;37.95;46.75;;
49215;Laerm;45943;53.148;8.204;2022-12-08T02:11:20;50.17;38.12;69.94;;
49215;Laerm;45943;53.148;8.204;2022-12-08T02:13:49;41.61;38.48;44.23;;
49215;Laerm;45943;53.148;8.204;2022-12-08T02:21:57;42.79;38.81;54.19;;
49215;Laerm;45943;53.148;8.204;2022-12-08T02:27:32;42.50;38.48;48.48;;
49215;Laerm;45943;53.148;8.204;2022-12-08T02:30:21;42.34;38.97;48.36;;
49215;Laerm;45943;53.148;8.204;2022-12-08T02:33:21;42.17;38.81;50.11;;
49215;Laerm;45943;53.148;8.204;2022-12-08T02:35:58;44.37;39.41;64.88;;
49215;Laerm;45943;53.148;8.204;2022-12-08T02:38:55;43.88;39.81;51.87;;
49215;Laerm;45943;53.148;8.204;2022-12-08T02:41:48;42.81;40.06;45.67;;
49215;Laerm;45943;53.148;8.204;2022-12-08T02:47:05;44.02;40.93;55.55;;
49215;Laerm;45943;53.148;8.204;2022-12-08T02:49:34;44.05;40.93;64.90;;
49215;Laerm;45943;53.148;8.204;2022-12-08T02:55:01;45.19;41.90;69.02;;
49215;Laerm;45943;53.148;8.204;2022-12-08T02:57:39;43.27;40.63;54.04;;
49215;Laerm;45943;53.148;8.204;2022-12-08T03:05:56;45.69;41.82;66.86;;
49215;Laerm;45943;53.148;8.204;2022-12-08T03:08:57;47.49;43.19;63.88;;
49215;Laerm;45943;53.148;8.204;2022-12-08T03:11:39;47.12;42.82;66.73;;
49215;Laerm;45943;53.148;8.204;2022-12-08T03:14:09;44.72;41.66;61.65;;
49215;Laerm;45943;53.148;8.204;2022-12-08T03:16:42;44.60;41.98;59.90;;
49215;Laerm;45943;53.148;8.204;2022-12-08T03:19:15;44.66;41.40;58.04;;
49215;Laerm;45943;53.148;8.204;2022-12-08T03:21:45;43.96;41.22;57.58;;
49215;Laerm;45943;53.148;8.204;2022-12-08T03:24:16;42.69;40.30;46.53;;
49215;Laerm;45943;53.148;8.204;2022-12-08T03:27:03;42.45;39.27;51.56;;
49215;Laerm;45943;53.148;8.204;2022-12-08T03:29:32;48.22;40.63;67.22;;
49215;Laerm;45943;53.148;8.204;2022-12-08T03:34:49;43.21;40.63;57.53;;
49215;Laerm;45943;53.148;8.204;2022-12-08T03:37:16;48.43;40.18;65.65;;
49215;Laerm;45943;53.148;8.204;2022-12-08T03:39:43;43.44;40.83;47.62;;
49215;Laerm;45943;53.148;8.204;2022-12-08T03:42:09;43.94;41.66;50.68;;
49215;Laerm;45943;53.148;8.204;2022-12-08T03:44:35;43.64;40.63;52.64;;
49215;Laerm;45943;53.148;8.204;2022-12-08T03:47:01;43.05;40.52;58.16;;
49215;Laerm;45943;53.148;8.204;2022-12-08T03:49:27;43.11;40.63;48.60;;
49215;Laerm;45943;53.148;8.204;2022-12-08T03:51:52;43.64;40.73;47.66;;
49215;Laerm;45943;53.148;8.204;2022-12-08T03:54:18;43.31;40.73;49.24;;
49215;Laerm;45943;53.148;8.204;2022-12-08T03:56:44;43.61;40.63;50.49;;
49215;Laerm;45943;53.148;8.204;2022-12-08T03:59:11;49.20;41.13;67.67;;
49215;Laerm;45943;53.148;8.204;2022-12-08T04:01:36;53.26;41.22;71.22;;
49215;Laerm;45943;53.148;8.204;2022-12-08T04:04:05;51.38;40.93;66.05;;
49215;Laerm;45943;53.148;8.204;2022-12-08T04:06:31;52.63;41.74;71.07;;
49215;Laerm;45943;53.148;8.204;2022-12-08T04:08:58;43.92;41.03;50.27;;
49215;Laerm;45943;53.148;8.204;2022-12-08T04:11:24;44.21;41.66;49.52;;
49215;Laerm;45943;53.148;8.204;2022-12-08T04:13:50;44.37;42.28;56.55;;
49215;Laerm;45943;53.148;8.204;2022-12-08T04:16:18;44.91;42.63;52.63;;
49215;Laerm;45943;53.148;8.204;2022-12-08T04:18:45;46.92;41.74;54.95;;
49215;Laerm;45943;53.148;8.204;2022-12-08T04:21:12;45.24;41.58;51.97;;
49215;Laerm;45943;53.148;8.204;2022-12-08T04:23:38;57.77;42.82;74.33;;
49215;Laerm;45943;53.148;8.204;2022-12-08T04:26:04;44.54;42.35;50.26;;
49215;Laerm;45943;53.148;8.204;2022-12-08T04:28:31;49.49;42.49;68.17;;
49215;Laerm;45943;53.148;8.204;2022-12-08T04:30:57;49.73;41.40;68.99;;
49215;Laerm;45943;53.148;8.204;2022-12-08T04:33:23;44.41;41.66;49.74;;
49215;Laerm;45943;53.148;8.204;2022-12-08T04:35:49;45.06;42.28;51.72;;
49215;Laerm;45943;53.148;8.204;2022-12-08T04:38:15;52.36;42.95;60.91;;
49215;Laerm;45943;53.148;8.204;2022-12-08T04:40:41;57.85;49.21;72.36;;
49215;Laerm;45943;53.148;8.204;2022-12-08T04:43:07;58.52;49.99;76.14;;
49215;Laerm;45943;53.148;8.204;2022-12-08T04:45:33;65.14;44.54;76.60;;
49215;Laerm;45943;53.148;8.204;2022-12-08T04:48:00;52.27;43.89;71.56;;
49215;Laerm;45943;53.148;8.204;2022-12-08T04:50:26;48.28;43.89;70.51;;
49215;Laerm;45943;53.148;8.204;2022-12-08T04:52:53;45.59;42.96;56.45;;
49215;Laerm;45943;53.148;8.204;2022-12-08T04:55:20;51.12;43.99;71.50;;
49215;Laerm;45943;53.148;8.204;2022-12-08T04:57:46;50.58;43.74;69.93;;
49215;Laerm;45943;53.148;8.204;2022-12-08T05:00:12;45.33;42.49;62.16;;
49215;Laerm;45943;53.148;8.204;2022-12-08T05:02:38;50.95;43.13;71.30;;
49215;Laerm;45943;53.148;8.204;2022-12-08T05:05:05;49.69;44.14;68.08;;
49215;Laerm;45943;53.148;8.204;2022-12-08T05:07:31;50.89;43.42;70.02;;
49215;Laerm;45943;53.148;8.204;2022-12-08T05:09:58;51.23;44.23;65.98;;
49215;Laerm;45943;53.148;8.204;2022-12-08T05:12:24;52.64;44.23;70.13;;
49215;Laerm;45943;53.148;8.204;2022-12-08T05:14:50;49.40;43.64;66.40;;
49215;Laerm;45943;53.148;8.204;2022-12-08T05:17:16;47.17;43.53;62.38;;
49215;Laerm;45943;53.148;8.204;2022-12-08T05:19:43;53.15;44.15;69.55;;
49215;Laerm;45943;53.148;8.204;2022-12-08T05:22:09;55.15;43.74;71.14;;
49215;Laerm;45943;53.148;8.204;2022-12-08T05:24:35;52.35;47.68;68.27;;
49215;Laerm;45943;53.148;8.204;2022-12-08T05:27:01;57.45;44.04;77.49;;
49215;Laerm;45943;53.148;8.204;2022-12-08T05:29:27;45.41;43.58;48.99;;
49215;Laerm;45943;53.148;8.204;2022-12-08T05:31:53;46.00;43.94;55.06;;
49215;Laerm;45943;53.148;8.204;2022-12-08T05:34:19;52.86;42.82;69.86;;
49215;Laerm;45943;53.148;8.204;2022-12-08T05:36:45;45.69;43.79;53.46;;
49215;Laerm;45943;53.148;8.204;2022-12-08T05:39:12;54.62;43.79;74.20;;
49215;Laerm;45943;53.148;8.204;2022-12-08T05:41:38;46.07;43.74;49.12;;
49215;Laerm;45943;53.148;8.204;2022-12-08T05:44:05;49.94;43.53;68.00;;
49215;Laerm;45943;53.148;8.204;2022-12-08T05:46:31;46.67;43.74;52.28;;
49215;Laerm;45943;53.148;8.204;2022-12-08T05:49:00;53.37;44.75;69.68;;
49215;Laerm;45943;53.148;8.204;2022-12-08T05:51:27;56.62;44.75;69.56;;
49215;Laerm;45943;53.148;8.204;2022-12-08T05:53:53;55.65;44.91;71.81;;
49215;Laerm;45943;53.148;8.204;2022-12-08T05:56:20;56.18;44.46;73.50;;
49215;Laerm;45943;53.148;8.204;2022-12-08T05:58:47;56.31;44.18;70.70;;
49215;Laerm;45943;53.148;8.204;2022-12-08T06:01:25;51.55;43.48;70.19;;
49215;Laerm;45943;53.148;8.204;2022-12-08T06:03:52;55.04;44.37;70.61;;
49215;Laerm;45943;53.148;8.204;2022-12-08T06:06:19;61.82;45.57;80.50;;
49215;Laerm;45943;53.148;8.204;2022-12-08T06:08:45;58.31;44.54;72.59;;
49215;Laerm;45943;53.148;8.204;2022-12-08T06:11:26;58.91;44.79;75.10;;
49215;Laerm;45943;53.148;8.204;2022-12-08T06:13:52;53.54;45.14;70.85;;
49215;Laerm;45943;53.148;8.204;2022-12-08T06:16:19;59.53;44.54;74.20;;
49215;Laerm;45943;53.148;8.204;2022-12-08T06:18:45;55.58;44.87;70.41;;
49215;Laerm;45943;53.148;8.204;2022-12-08T06:21:13;55.68;44.67;70.53;;
49215;Laerm;45943;53.148;8.204;2022-12-08T06:23:40;59.20;45.36;71.75;;
49215;Laerm;45943;53.148;8.204;2022-12-08T06:26:12;58.71;44.91;71.51;;
49215;Laerm;45943;53.148;8.204;2022-12-08T06:28:40;58.08;45.57;73.01;;
49215;Laerm;45943;53.148;8.204;2022-12-08T06:31:13;60.62;46.02;75.01;;
49215;Laerm;45943;53.148;8.204;2022-12-08T06:33:39;56.72;45.07;73.59;;
49215;Laerm;45943;53.148;8.204;2022-12-08T06:36:05;56.10;45.03;72.34;;
49215;Laerm;45943;53.148;8.204;2022-12-08T06:38:32;58.70;44.14;73.21;;
49215;Laerm;45943;53.148;8.204;2022-12-08T06:40:58;56.53;44.63;69.84;;
49215;Laerm;45943;53.148;8.204;2022-12-08T06:43:25;58.61;45.11;76.12;;
49215;Laerm;45943;53.148;8.204;2022-12-08T06:45:51;61.17;45.94;74.87;;
49215;Laerm;45943;53.148;8.204;2022-12-08T06:48:18;60.28;47.15;76.03;;
49215;Laerm;45943;53.148;8.204;2022-12-08T06:50:44;61.35;44.99;77.18;;
49215;Laerm;45943;53.148;8.204;2022-12-08T06:53:12;58.71;45.99;72.18;;
49215;Laerm;45943;53.148;8.204;2022-12-08T06:55:46;57.77;45.22;70.47;;
49215;Laerm;45943;53.148;8.204;2022-12-08T06:58:13;59.05;45.07;70.77;;
49215;Laerm;45943;53.148;8.204;2022-12-08T07:00:40;62.31;45.77;77.09;;
49215;Laerm;45943;53.148;8.204;2022-12-08T07:03:08;57.29;45.25;68.63;;
49215;Laerm;45943;53.148;8.204;2022-12-08T07:05:35;56.17;45.11;70.09;;
49215;Laerm;45943;53.148;8.204;2022-12-08T07:08:02;57.26;45.54;67.85;;
49215;Laerm;45943;53.148;8.204;2022-12-08T07:10:28;55.82;44.59;67.65;;
49215;Laerm;45943;53.148;8.204;2022-12-08T07:12:54;56.66;44.99;68.57;;
49215;Laerm;45943;53.148;8.204;2022-12-08T07:15:20;56.40;44.83;68.32;;
49215;Laerm;45943;53.148;8.204;2022-12-08T07:17:47;60.02;48.96;70.72;;
49215;Laerm;45943;53.148;8.204;2022-12-08T07:20:13;58.40;45.80;70.38;;
49215;Laerm;45943;53.148;8.204;2022-12-08T07:22:39;59.14;48.73;70.02;;
49215;Laerm;45943;53.148;8.204;2022-12-08T07:25:06;60.18;48.32;71.83;;
49215;Laerm;45943;53.148;8.204;2022-12-08T07:27:32;61.76;49.47;75.85;;
49215;Laerm;45943;53.148;8.204;2022-12-08T07:29:58;62.03;47.88;78.11;;
49215;Laerm;45943;53.148;8.204;2022-12-08T07:32:23;54.26;45.22;67.92;;
49215;Laerm;45943;53.148;8.204;2022-12-08T07:34:49;58.21;44.87;74.64;;
49215;Laerm;45943;53.148;8.204;2022-12-08T07:37:15;55.76;45.18;69.27;;
49215;Laerm;45943;53.148;8.204;2022-12-08T07:39:41;55.67;44.83;71.15;;
49215;Laerm;45943;53.148;8.204;2022-12-08T07:42:07;54.73;45.25;70.46;;
49215;Laerm;45943;53.148;8.204;2022-12-08T07:44:33;58.19;45.67;69.44;;
49215;Laerm;45943;53.148;8.204;2022-12-08T07:46:59;54.57;44.83;67.14;;
49215;Laerm;45943;53.148;8.204;2022-12-08T07:49:25;56.95;44.83;73.12;;
49215;Laerm;45943;53.148;8.204;2022-12-08T07:51:51;52.78;44.79;65.95;;
49215;Laerm;45943;53.148;8.204;2022-12-08T07:54:17;59.31;44.75;70.54;;
49215;Laerm;45943;53.148;8.204;2022-12-08T07:56:43;59.69;45.11;74.50;;
49215;Laerm;45943;53.148;8.204;2022-12-08T07:59:10;57.29;45.40;69.96;;
49215;Laerm;45943;53.148;8.204;2022-12-08T08:01:36;57.43;44.18;72.40;;
49215;Laerm;45943;53.148;8.204;2022-12-08T08:04:03;57.17;44.46;70.94;;
49215;Laerm;45943;53.148;8.204;2022-12-08T08:06:31;52.39;44.54;66.93;;
49215;Laerm;45943;53.148;8.204;2022-12-08T08:08:58;56.53;44.99;71.53;;
49215;Laerm;45943;53.148;8.204;2022-12-08T08:11:24;54.36;44.63;69.20;;
49215;Laerm;45943;53.148;8.204;2022-12-08T08:13:50;53.72;44.95;68.59;;
49215;Laerm;45943;53.148;8.204;2022-12-08T08:16:17;57.87;44.46;71.98;;
49215;Laerm;45943;53.148;8.204;2022-12-08T08:18:49;56.14;44.87;69.52;;
49215;Laerm;45943;53.148;8.204;2022-12-08T08:21:16;57.23;44.32;71.34;;
49215;Laerm;45943;53.148;8.204;2022-12-08T08:23:42;55.84;44.37;74.52;;
49215;Laerm;45943;53.148;8.204;2022-12-08T08:26:08;55.83;44.41;69.26;;
49215;Laerm;45943;53.148;8.204;2022-12-08T08:28:34;52.45;44.50;64.59;;
49215;Laerm;45943;53.148;8.204;2022-12-08T08:31:00;56.94;44.23;71.22;;
49215;Laerm;45943;53.148;8.204;2022-12-08T08:33:26;52.74;44.91;68.49;;
49215;Laerm;45943;53.148;8.204;2022-12-08T08:35:53;56.42;45.77;71.30;;
49215;Laerm;45943;53.148;8.204;2022-12-08T08:38:19;59.84;46.37;71.48;;
49215;Laerm;45943;53.148;8.204;2022-12-08T08:40:45;61.90;44.54;74.42;;
49215;Laerm;45943;53.148;8.204;2022-12-08T08:43:11;56.86;44.18;68.95;;
49215;Laerm;45943;53.148;8.204;2022-12-08T08:45:57;58.22;44.67;71.47;;
49215;Laerm;45943;53.148;8.204;2022-12-08T08:48:29;59.02;44.87;72.36;;
49215;Laerm;45943;53.148;8.204;2022-12-08T08:50:56;55.76;44.04;71.67;;
49215;Laerm;45943;53.148;8.204;2022-12-08T08:53:23;51.78;43.89;66.60;;
49215;Laerm;45943;53.148;8.204;2022-12-08T08:55:49;53.50;44.09;69.86;;
49215;Laerm;45943;53.148;8.204;2022-12-08T08:58:16;54.72;43.53;68.46;;
49215;Laerm;45943;53.148;8.204;2022-12-08T09:00:42;58.14;53.04;69.89;;
49215;Laerm;45943;53.148;8.204;2022-12-08T09:03:08;56.24;52.29;66.81;;
49215;Laerm;45943;53.148;8.204;2022-12-08T09:05:36;56.91;52.20;70.13;;
49215;Laerm;45943;53.148;8.204;2022-12-08T09:08:02;55.39;52.10;70.19;;
49215;Laerm;45943;53.148;8.204;2022-12-08T09:10:28;58.48;52.31;70.51;;
49215;Laerm;45943;53.148;8.204;2022-12-08T09:12:54;55.86;52.56;67.17;;
49215;Laerm;45943;53.148;8.204;2022-12-08T09:15:20;58.94;52.26;73.37;;
49215;Laerm;45943;53.148;8.204;2022-12-08T09:17:46;56.68;52.32;69.02;;
49215;Laerm;45943;53.148;8.204;2022-12-08T09:20:12;57.14;52.07;67.02;;
49215;Laerm;45943;53.148;8.204;2022-12-08T09:22:38;56.20;52.32;67.11;;
49215;Laerm;45943;53.148;8.204;2022-12-08T09:25:04;57.66;44.37;72.34;;
49215;Laerm;45943;53.148;8.204;2022-12-08T09:27:30;55.28;43.42;71.55;;
49215;Laerm;45943;53.148;8.204;2022-12-08T09:29:56;57.30;43.84;75.80;;
49215;Laerm;45943;53.148;8.204;2022-12-08T09:32:22;56.17;43.69;78.40;;
49215;Laerm;45943;53.148;8.204;2022-12-08T09:34:48;53.80;43.74;69.84;;
49215;Laerm;45943;53.148;8.204;2022-12-08T09:37:14;53.58;44.37;68.19;;
49215;Laerm;45943;53.148;8.204;2022-12-08T09:39:40;57.56;44.18;71.88;;
49215;Laerm;45943;53.148;8.204;2022-12-08T09:42:06;57.97;44.59;69.93;;
49215;Laerm;45943;53.148;8.204;2022-12-08T09:50:13;56.63;44.75;68.76;;
49215;Laerm;45943;53.148;8.204;2022-12-08T09:52:44;57.21;44.50;70.64;;
49215;Laerm;45943;53.148;8.204;2022-12-08T09:55:24;56.71;44.37;69.58;;
49215;Laerm;45943;53.148;8.204;2022-12-08T09:58:00;60.72;44.37;77.28;;
49215;Laerm;45943;53.148;8.204;2022-12-08T10:00:27;55.84;43.89;66.35;;
49215;Laerm;45943;53.148;8.204;2022-12-08T10:02:54;59.86;44.18;82.86;;
49215;Laerm;45943;53.148;8.204;2022-12-08T10:05:22;54.40;43.74;69.76;;
49215;Laerm;45943;53.148;8.204;2022-12-08T10:08:07;53.66;43.24;69.98;;
49215;Laerm;45943;53.148;8.204;2022-12-08T10:10:47;52.67;43.58;70.60;;
49215;Laerm;45943;53.148;8.204;2022-12-08T10:13:32;55.06;43.53;68.61;;
49215;Laerm;45943;53.148;8.204;2022-12-08T10:16:23;57.11;43.99;72.87;;
49215;Laerm;45943;53.148;8.204;2022-12-08T10:19:01;56.35;43.97;72.80;;
49215;Laerm;45943;53.148;8.204;2022-12-08T10:21:34;57.03;44.28;72.18;;
49215;Laerm;45943;53.148;8.204;2022-12-08T10:24:15;57.48;44.37;73.45;;
49215;Laerm;45943;53.148;8.204;2022-12-08T10:26:44;59.46;44.41;76.48;;
49215;Laerm;45943;53.148;8.204;2022-12-08T10:29:12;55.52;43.64;69.00;;
49215;Laerm;45943;53.148;8.204;2022-12-08T10:31:38;55.26;43.89;69.22;;
49215;Laerm;45943;53.148;8.204;2022-12-08T10:34:21;56.77;43.34;69.28;;
49215;Laerm;45943;53.148;8.204;2022-12-08T10:36:50;57.03;42.95;71.48;;
49215;Laerm;45943;53.148;8.204;2022-12-08T10:47:12;51.86;43.07;67.87;;
49215;Laerm;45943;53.148;8.204;2022-12-08T10:49:39;52.97;43.69;68.92;;
49215;Laerm;45943;53.148;8.204;2022-12-08T10:52:21;54.00;43.13;69.46;;
49215;Laerm;45943;53.148;8.204;2022-12-08T10:54:52;54.38;43.07;68.45;;
49215;Laerm;45943;53.148;8.204;2022-12-08T10:57:21;54.63;42.15;68.21;;
49215;Laerm;45943;53.148;8.204;2022-12-08T10:59:48;52.22;41.58;65.49;;
49215;Laerm;45943;53.148;8.204;2022-12-08T11:02:18;57.19;41.82;75.00;;
49215;Laerm;45943;53.148;8.204;2022-12-08T11:04:45;58.23;44.32;79.07;;
49215;Laerm;45943;53.148;8.204;2022-12-08T11:07:19;55.01;43.53;70.73;;
49215;Laerm;45943;53.148;8.204;2022-12-08T11:09:48;54.80;43.19;69.88;;
49215;Laerm;45943;53.148;8.204;2022-12-08T11:12:19;55.41;43.07;70.53;;
49215;Laerm;45943;53.148;8.204;2022-12-08T11:14:47;52.26;43.25;69.36;;
49215;Laerm;45943;53.148;8.204;2022-12-08T11:17:16;53.09;43.36;67.17;;
49215;Laerm;45943;53.148;8.204;2022-12-08T11:19:53;56.15;43.01;71.13;;
49215;Laerm;45943;53.148;8.204;2022-12-08T11:24:55;53.74;43.19;67.79;;
49215;Laerm;45943;53.148;8.204;2022-12-08T11:27:21;56.00;42.95;70.93;;
49215;Laerm;45943;53.148;8.204;2022-12-08T11:29:47;59.73;43.19;76.50;;
49215;Laerm;45943;53.148;8.204;2022-12-08T11:32:13;56.55;43.13;73.25;;
49215;Laerm;45943;53.148;8.204;2022-12-08T11:34:44;55.29;42.89;70.86;;
49215;Laerm;45943;53.148;8.204;2022-12-08T11:37:40;53.40;42.56;69.08;;
49215;Laerm;45943;53.148;8.204;2022-12-08T11:40:23;54.59;42.49;70.12;;
49215;Laerm;45943;53.148;8.204;2022-12-08T11:45:24;56.53;42.89;69.52;;
49215;Laerm;45943;53.148;8.204;2022-12-08T11:48:16;57.15;41.40;73.67;;
49215;Laerm;45943;53.148;8.204;2022-12-08T11:50:51;54.48;42.21;68.88;;
49215;Laerm;45943;53.148;8.204;2022-12-08T11:53:34;57.20;43.89;72.17;;
49215;Laerm;45943;53.148;8.204;2022-12-08T11:56:19;55.46;42.82;69.28;;
49215;Laerm;45943;53.148;8.204;2022-12-08T11:58:55;58.38;42.48;71.37;;
49215;Laerm;45943;53.148;8.204;2022-12-08T12:01:23;57.31;42.63;70.78;;
49215;Laerm;45943;53.148;8.204;2022-12-08T12:04:12;57.34;41.03;73.33;;
49215;Laerm;45943;53.148;8.204;2022-12-08T12:07:09;58.82;43.19;71.55;;
49215;Laerm;45943;53.148;8.204;2022-12-08T12:09:55;57.86;44.46;72.44;;
49215;Laerm;45943;53.148;8.204;2022-12-08T12:18:00;56.71;43.07;70.32;;
49215;Laerm;45943;53.148;8.204;2022-12-08T12:20:40;56.35;43.64;69.45;;
49215;Laerm;45943;53.148;8.204;2022-12-08T12:25:57;54.36;42.21;67.53;;
49215;Laerm;45943;53.148;8.204;2022-12-08T12:28:42;58.41;44.79;69.55;;
49215;Laerm;45943;53.148;8.204;2022-12-08T12:31:12;57.34;43.53;67.95;;
49215;Laerm;45943;53.148;8.204;2022-12-08T12:33:42;57.32;43.89;72.86;;
49215;Laerm;45943;53.148;8.204;2022-12-08T12:36:09;57.87;43.58;72.85;;
49215;Laerm;45943;53.148;8.204;2022-12-08T12:38:39;58.84;46.83;78.58;;
49215;Laerm;45943;53.148;8.204;2022-12-08T12:46:39;55.83;43.48;69.81;;
49215;Laerm;45943;53.148;8.204;2022-12-08T12:52:04;53.61;43.64;67.68;;
49215;Laerm;45943;53.148;8.204;2022-12-08T12:54:32;57.73;43.42;77.84;;
49215;Laerm;45943;53.148;8.204;2022-12-08T12:59:35;62.37;51.82;72.99;;
49215;Laerm;45943;53.148;8.204;2022-12-08T13:02:16;55.65;44.99;66.91;;
49215;Laerm;45943;53.148;8.204;2022-12-08T13:04:52;55.79;43.53;69.61;;
49215;Laerm;45943;53.148;8.204;2022-12-08T13:07:25;51.80;43.07;67.40;;
49215;Laerm;45943;53.148;8.204;2022-12-08T13:09:58;57.39;43.19;70.65;;
49215;Laerm;45943;53.148;8.204;2022-12-08T13:12:25;57.57;43.58;70.93;;
49215;Laerm;45943;53.148;8.204;2022-12-08T13:14:59;68.19;42.95;87.23;;
49215;Laerm;45943;53.148;8.204;2022-12-08T13:17:29;56.10;43.36;71.00;;
49215;Laerm;45943;53.148;8.204;2022-12-08T13:19:59;57.55;43.53;74.18;;
49215;Laerm;45943;53.148;8.204;2022-12-08T13:28:25;56.77;43.01;73.55;;
49215;Laerm;45943;53.148;8.204;2022-12-08T13:31:01;53.91;43.53;69.31;;
49215;Laerm;45943;53.148;8.204;2022-12-08T13:33:37;57.69;42.95;72.73;;
49215;Laerm;45943;53.148;8.204;2022-12-08T13:36:18;57.07;43.79;72.48;;
49215;Laerm;45943;53.148;8.204;2022-12-08T13:38:46;60.42;44.59;72.22;;
49215;Laerm;45943;53.148;8.204;2022-12-08T13:41:19;58.36;42.95;72.36;;
49215;Laerm;45943;53.148;8.204;2022-12-08T13:43:51;53.83;42.06;68.47;;
49215;Laerm;45943;53.148;8.204;2022-12-08T13:46:30;54.81;42.76;67.18;;
49215;Laerm;45943;53.148;8.204;2022-12-08T13:48:59;58.02;43.19;72.99;;
49215;Laerm;45943;53.148;8.204;2022-12-08T13:51:29;56.43;43.07;69.81;;
49215;Laerm;45943;53.148;8.204;2022-12-08T13:54:06;57.31;42.76;75.73;;
49215;Laerm;45943;53.148;8.204;2022-12-08T13:56:38;55.67;42.82;71.08;;
49215;Laerm;45943;53.148;8.204;2022-12-08T13:59:22;55.59;42.82;71.21;;
49215;Laerm;45943;53.148;8.204;2022-12-08T14:01:50;55.10;42.69;72.69;;
49215;Laerm;45943;53.148;8.204;2022-12-08T14:04:18;57.29;44.04;72.77;;
49215;Laerm;45943;53.148;8.204;2022-12-08T14:06:48;56.77;42.95;72.59;;
49215;Laerm;45943;53.148;8.204;2022-12-08T14:09:16;56.92;42.89;72.41;;
49215;Laerm;45943;53.148;8.204;2022-12-08T14:11:51;52.68;42.95;65.19;;
49215;Laerm;45943;53.148;8.204;2022-12-08T14:14:23;61.52;43.84;80.31;;
49215;Laerm;45943;53.148;8.204;2022-12-08T14:17:00;52.99;43.19;68.58;;
49215;Laerm;45943;53.148;8.204;2022-12-08T14:19:28;55.92;43.07;67.80;;
49215;Laerm;45943;53.148;8.204;2022-12-08T14:21:57;57.05;43.99;70.01;;
49215;Laerm;45943;53.148;8.204;2022-12-08T14:24:26;53.21;42.56;65.33;;
49215;Laerm;45943;53.148;8.204;2022-12-08T14:26:57;55.71;43.25;72.25;;
49215;Laerm;45943;53.148;8.204;2022-12-08T14:29:35;61.39;43.01;79.27;;
49215;Laerm;45943;53.148;8.204;2022-12-08T14:32:49;61.39;42.82;76.54;;
49215;Laerm;45943;53.148;8.204;2022-12-08T14:34:53;59.72;44.99;73.94;;
49215;Laerm;45943;53.148;8.204;2022-12-08T14:37:21;65.02;52.64;83.32;;
49215;Laerm;45943;53.148;8.204;2022-12-08T14:39:48;66.69;49.51;87.38;;
49215;Laerm;45943;53.148;8.204;2022-12-08T14:42:23;57.47;43.89;70.60;;
49215;Laerm;45943;53.148;8.204;2022-12-08T14:45:05;57.70;41.58;73.21;;
49215;Laerm;45943;53.148;8.204;2022-12-08T14:47:34;57.71;41.40;71.07;;
49215;Laerm;45943;53.148;8.204;2022-12-08T14:50:01;56.33;42.56;68.20;;
49215;Laerm;45943;53.148;8.204;2022-12-08T14:52:29;57.55;42.89;70.94;;
49215;Laerm;45943;53.148;8.204;2022-12-08T14:54:56;59.08;43.79;74.14;;
49215;Laerm;45943;53.148;8.204;2022-12-08T14:57:33;56.90;42.89;70.33;;
49215;Laerm;45943;53.148;8.204;2022-12-08T15:00:06;55.45;42.49;67.26;;
49215;Laerm;45943;53.148;8.204;2022-12-08T15:02:32;56.65;42.89;74.95;;
49215;Laerm;45943;53.148;8.204;2022-12-08T15:05:08;55.93;42.69;69.09;;
49215;Laerm;45943;53.148;8.204;2022-12-08T15:12:55;57.60;43.74;69.81;;